sensor_id;sensor_type;location;lat;lon;timestamp;P1;durP1;ratioP1;P2;durP2;ratioP2
39242;SDS011;29823;47.404;8.566;2023-12-20T00:01:30;10.88;;;5.60;;
39242;SDS011;29823;47.404;8.566;2023-12-20T00:03:57;10.38;;;5.78;;
39242;SDS011;29823;47.404;8.566;2023-12-20T00:06:25;11.63;;;5.68;;
39242;SDS011;29823;47.404;8.566;2023-12-20T00:08:54;11.45;;;6.55;;
39242;SDS011;29823;47.404;8.566;2023-12-20T00:11:21;8.57;;;4.97;;
39242;SDS011;29823;47.404;8.566;2023-12-20T00:13:49;10.80;;;6.13;;
39242;SDS011;29823;47.404;8.566;2023-12-20T00:16:17;9.40;;;5.40;;
39242;SDS011;29823;47.404;8.566;2023-12-20T00:18:45;11.40;;;6.00;;
39242;SDS011;29823;47.404;8.566;2023-12-20T00:21:13;14.43;;;6.43;;
39242;SDS011;29823;47.404;8.566;2023-12-20T00:23:40;10.57;;;5.43;;
39242;SDS011;29823;47.404;8.566;2023-12-20T00:26:09;13.50;;;6.55;;
39242;SDS011;29823;47.404;8.566;2023-12-20T00:28:37;12.57;;;6.72;;
39242;SDS011;29823;47.404;8.566;2023-12-20T00:31:05;14.68;;;6.18;;
39242;SDS011;29823;47.404;8.566;2023-12-20T00:33:32;9.63;;;5.70;;
39242;SDS011;29823;47.404;8.566;2023-12-20T00:36:00;12.35;;;6.32;;
39242;SDS011;29823;47.404;8.566;2023-12-20T00:38:28;10.15;;;5.68;;
39242;SDS011;29823;47.404;8.566;2023-12-20T00:40:56;9.82;;;5.93;;
39242;SDS011;29823;47.404;8.566;2023-12-20T00:43:25;11.05;;;6.10;;
39242;SDS011;29823;47.404;8.566;2023-12-20T00:45:54;13.07;;;6.47;;
39242;SDS011;29823;47.404;8.566;2023-12-20T00:48:22;14.13;;;6.38;;
39242;SDS011;29823;47.404;8.566;2023-12-20T00:50:50;11.95;;;6.32;;
39242;SDS011;29823;47.404;8.566;2023-12-20T00:53:17;9.75;;;6.18;;
39242;SDS011;29823;47.404;8.566;2023-12-20T00:55:45;12.30;;;6.57;;
39242;SDS011;29823;47.404;8.566;2023-12-20T00:58:13;10.13;;;6.47;;
39242;SDS011;29823;47.404;8.566;2023-12-20T01:00:43;12.07;;;6.43;;
39242;SDS011;29823;47.404;8.566;2023-12-20T01:03:11;14.32;;;6.65;;
39242;SDS011;29823;47.404;8.566;2023-12-20T01:05:38;13.68;;;6.47;;
39242;SDS011;29823;47.404;8.566;2023-12-20T01:08:06;11.40;;;6.43;;
39242;SDS011;29823;47.404;8.566;2023-12-20T01:10:33;11.20;;;6.28;;
39242;SDS011;29823;47.404;8.566;2023-12-20T01:13:01;11.50;;;6.50;;
39242;SDS011;29823;47.404;8.566;2023-12-20T01:15:29;13.07;;;6.22;;
39242;SDS011;29823;47.404;8.566;2023-12-20T01:17:58;11.70;;;6.88;;
39242;SDS011;29823;47.404;8.566;2023-12-20T01:20:26;11.20;;;6.07;;
39242;SDS011;29823;47.404;8.566;2023-12-20T01:22:53;12.27;;;6.43;;
39242;SDS011;29823;47.404;8.566;2023-12-20T01:25:21;11.30;;;6.63;;
39242;SDS011;29823;47.404;8.566;2023-12-20T01:27:49;13.25;;;6.30;;
39242;SDS011;29823;47.404;8.566;2023-12-20T01:30:17;10.25;;;6.03;;
39242;SDS011;29823;47.404;8.566;2023-12-20T01:32:45;13.80;;;6.88;;
39242;SDS011;29823;47.404;8.566;2023-12-20T01:35:14;11.73;;;6.25;;
39242;SDS011;29823;47.404;8.566;2023-12-20T01:37:42;10.05;;;6.25;;
39242;SDS011;29823;47.404;8.566;2023-12-20T01:40:10;11.15;;;6.45;;
39242;SDS011;29823;47.404;8.566;2023-12-20T01:42:38;11.27;;;6.35;;
39242;SDS011;29823;47.404;8.566;2023-12-20T01:45:06;15.05;;;7.68;;
39242;SDS011;29823;47.404;8.566;2023-12-20T01:47:34;11.90;;;6.90;;
39242;SDS011;29823;47.404;8.566;2023-12-20T01:50:01;11.80;;;6.60;;
39242;SDS011;29823;47.404;8.566;2023-12-20T01:52:32;10.57;;;6.10;;
39242;SDS011;29823;47.404;8.566;2023-12-20T01:55:00;11.50;;;6.32;;
39242;SDS011;29823;47.404;8.566;2023-12-20T01:57:30;12.25;;;6.30;;
39242;SDS011;29823;47.404;8.566;2023-12-20T01:59:58;10.75;;;6.10;;
39242;SDS011;29823;47.404;8.566;2023-12-20T02:02:26;10.20;;;5.93;;
39242;SDS011;29823;47.404;8.566;2023-12-20T02:04:54;10.38;;;5.07;;
39242;SDS011;29823;47.404;8.566;2023-12-20T02:07:22;13.88;;;6.10;;
39242;SDS011;29823;47.404;8.566;2023-12-20T02:09:52;9.10;;;5.13;;
39242;SDS011;29823;47.404;8.566;2023-12-20T02:12:19;9.00;;;5.55;;
39242;SDS011;29823;47.404;8.566;2023-12-20T02:14:47;9.23;;;5.68;;
39242;SDS011;29823;47.404;8.566;2023-12-20T02:17:15;12.50;;;6.53;;
39242;SDS011;29823;47.404;8.566;2023-12-20T02:19:43;13.57;;;7.25;;
39242;SDS011;29823;47.404;8.566;2023-12-20T02:22:12;11.20;;;6.55;;
39242;SDS011;29823;47.404;8.566;2023-12-20T02:24:40;10.30;;;6.57;;
39242;SDS011;29823;47.404;8.566;2023-12-20T02:27:08;13.70;;;6.90;;
39242;SDS011;29823;47.404;8.566;2023-12-20T02:29:36;11.00;;;6.13;;
39242;SDS011;29823;47.404;8.566;2023-12-20T02:32:03;12.35;;;6.95;;
39242;SDS011;29823;47.404;8.566;2023-12-20T02:34:31;15.20;;;7.57;;
39242;SDS011;29823;47.404;8.566;2023-12-20T02:36:59;11.52;;;6.18;;
39242;SDS011;29823;47.404;8.566;2023-12-20T02:39:28;14.98;;;7.82;;
39242;SDS011;29823;47.404;8.566;2023-12-20T02:41:55;17.85;;;7.68;;
39242;SDS011;29823;47.404;8.566;2023-12-20T02:44:23;12.43;;;7.45;;
39242;SDS011;29823;47.404;8.566;2023-12-20T02:46:51;12.90;;;7.70;;
39242;SDS011;29823;47.404;8.566;2023-12-20T02:49:19;15.60;;;7.60;;
39242;SDS011;29823;47.404;8.566;2023-12-20T02:51:47;13.45;;;7.82;;
39242;SDS011;29823;47.404;8.566;2023-12-20T02:54:14;13.63;;;7.28;;
39242;SDS011;29823;47.404;8.566;2023-12-20T02:56:44;15.07;;;8.20;;
39242;SDS011;29823;47.404;8.566;2023-12-20T02:59:11;16.17;;;8.25;;
39242;SDS011;29823;47.404;8.566;2023-12-20T03:01:41;14.23;;;8.50;;
39242;SDS011;29823;47.404;8.566;2023-12-20T03:04:09;14.95;;;8.57;;
39242;SDS011;29823;47.404;8.566;2023-12-20T03:06:37;17.38;;;9.23;;
39242;SDS011;29823;47.404;8.566;2023-12-20T03:09:05;15.15;;;8.70;;
39242;SDS011;29823;47.404;8.566;2023-12-20T03:11:35;19.08;;;10.15;;
39242;SDS011;29823;47.404;8.566;2023-12-20T03:14:04;15.95;;;8.15;;
39242;SDS011;29823;47.404;8.566;2023-12-20T03:16:32;19.98;;;10.02;;
39242;SDS011;29823;47.404;8.566;2023-12-20T03:19:02;17.77;;;9.10;;
39242;SDS011;29823;47.404;8.566;2023-12-20T03:21:30;15.88;;;9.10;;
39242;SDS011;29823;47.404;8.566;2023-12-20T03:23:58;14.95;;;8.63;;
39242;SDS011;29823;47.404;8.566;2023-12-20T03:26:26;17.73;;;9.05;;
39242;SDS011;29823;47.404;8.566;2023-12-20T03:28:53;18.83;;;9.27;;
39242;SDS011;29823;47.404;8.566;2023-12-20T03:31:22;14.80;;;9.13;;
39242;SDS011;29823;47.404;8.566;2023-12-20T03:33:50;15.13;;;8.43;;
39242;SDS011;29823;47.404;8.566;2023-12-20T03:36:19;15.80;;;9.05;;
39242;SDS011;29823;47.404;8.566;2023-12-20T03:38:47;15.30;;;9.23;;
39242;SDS011;29823;47.404;8.566;2023-12-20T03:41:15;18.48;;;9.20;;
39242;SDS011;29823;47.404;8.566;2023-12-20T03:43:42;13.00;;;7.65;;
39242;SDS011;29823;47.404;8.566;2023-12-20T03:46:10;17.90;;;8.98;;
39242;SDS011;29823;47.404;8.566;2023-12-20T03:48:39;14.38;;;8.68;;
39242;SDS011;29823;47.404;8.566;2023-12-20T03:51:07;15.38;;;9.25;;
39242;SDS011;29823;47.404;8.566;2023-12-20T03:53:34;15.65;;;9.18;;
39242;SDS011;29823;47.404;8.566;2023-12-20T03:56:02;18.88;;;9.27;;
39242;SDS011;29823;47.404;8.566;2023-12-20T03:58:30;17.92;;;9.85;;
39242;SDS011;29823;47.404;8.566;2023-12-20T04:00:58;13.95;;;9.10;;
39242;SDS011;29823;47.404;8.566;2023-12-20T04:03:26;17.55;;;9.68;;
39242;SDS011;29823;47.404;8.566;2023-12-20T04:05:55;14.90;;;9.30;;
39242;SDS011;29823;47.404;8.566;2023-12-20T04:08:23;16.23;;;9.05;;
39242;SDS011;29823;47.404;8.566;2023-12-20T04:10:50;18.70;;;9.38;;
39242;SDS011;29823;47.404;8.566;2023-12-20T04:13:18;16.27;;;9.57;;
39242;SDS011;29823;47.404;8.566;2023-12-20T04:15:46;20.55;;;10.38;;
39242;SDS011;29823;47.404;8.566;2023-12-20T04:18:14;15.23;;;9.27;;
39242;SDS011;29823;47.404;8.566;2023-12-20T04:20:42;15.25;;;9.05;;
39242;SDS011;29823;47.404;8.566;2023-12-20T04:23:11;17.83;;;10.23;;
39242;SDS011;29823;47.404;8.566;2023-12-20T04:25:38;17.30;;;9.25;;
39242;SDS011;29823;47.404;8.566;2023-12-20T04:28:06;17.00;;;10.32;;
39242;SDS011;29823;47.404;8.566;2023-12-20T04:30:33;18.05;;;9.80;;
39242;SDS011;29823;47.404;8.566;2023-12-20T04:33:01;16.00;;;9.43;;
39242;SDS011;29823;47.404;8.566;2023-12-20T04:35:29;14.93;;;9.38;;
39242;SDS011;29823;47.404;8.566;2023-12-20T04:37:56;14.02;;;8.77;;
39242;SDS011;29823;47.404;8.566;2023-12-20T04:40:26;16.00;;;9.55;;
39242;SDS011;29823;47.404;8.566;2023-12-20T04:42:53;17.50;;;9.50;;
39242;SDS011;29823;47.404;8.566;2023-12-20T04:45:21;22.23;;;10.05;;
39242;SDS011;29823;47.404;8.566;2023-12-20T04:47:50;15.80;;;9.35;;
39242;SDS011;29823;47.404;8.566;2023-12-20T04:50:17;15.02;;;9.85;;
39242;SDS011;29823;47.404;8.566;2023-12-20T04:52:46;15.23;;;9.13;;
39242;SDS011;29823;47.404;8.566;2023-12-20T04:55:13;20.05;;;10.85;;
39242;SDS011;29823;47.404;8.566;2023-12-20T04:57:43;15.65;;;9.18;;
39242;SDS011;29823;47.404;8.566;2023-12-20T05:00:11;16.08;;;9.20;;
39242;SDS011;29823;47.404;8.566;2023-12-20T05:02:40;15.25;;;9.60;;
39242;SDS011;29823;47.404;8.566;2023-12-20T05:05:08;15.52;;;9.63;;
39242;SDS011;29823;47.404;8.566;2023-12-20T05:07:36;20.83;;;10.40;;
39242;SDS011;29823;47.404;8.566;2023-12-20T05:10:04;18.00;;;9.85;;
39242;SDS011;29823;47.404;8.566;2023-12-20T05:12:34;15.40;;;9.13;;
39242;SDS011;29823;47.404;8.566;2023-12-20T05:15:03;16.17;;;8.18;;
39242;SDS011;29823;47.404;8.566;2023-12-20T05:17:31;18.60;;;9.20;;
39242;SDS011;29823;47.404;8.566;2023-12-20T05:19:59;15.43;;;9.07;;
39242;SDS011;29823;47.404;8.566;2023-12-20T05:22:27;29.02;;;13.80;;
39242;SDS011;29823;47.404;8.566;2023-12-20T05:24:55;18.90;;;11.07;;
39242;SDS011;29823;47.404;8.566;2023-12-20T05:27:22;21.45;;;10.00;;
39242;SDS011;29823;47.404;8.566;2023-12-20T05:29:50;17.23;;;9.30;;
39242;SDS011;29823;47.404;8.566;2023-12-20T05:32:19;18.08;;;9.70;;
39242;SDS011;29823;47.404;8.566;2023-12-20T05:34:46;18.35;;;9.55;;
39242;SDS011;29823;47.404;8.566;2023-12-20T05:37:14;16.45;;;8.93;;
39242;SDS011;29823;47.404;8.566;2023-12-20T05:39:42;16.60;;;9.85;;
39242;SDS011;29823;47.404;8.566;2023-12-20T05:42:09;15.98;;;9.40;;
39242;SDS011;29823;47.404;8.566;2023-12-20T05:44:37;13.98;;;8.55;;
39242;SDS011;29823;47.404;8.566;2023-12-20T05:47:04;16.92;;;9.13;;
39242;SDS011;29823;47.404;8.566;2023-12-20T05:49:34;20.67;;;9.27;;
39242;SDS011;29823;47.404;8.566;2023-12-20T05:52:01;15.35;;;8.80;;
39242;SDS011;29823;47.404;8.566;2023-12-20T05:54:29;18.05;;;9.55;;
39242;SDS011;29823;47.404;8.566;2023-12-20T05:56:57;17.15;;;9.35;;
39242;SDS011;29823;47.404;8.566;2023-12-20T05:59:24;16.60;;;10.45;;
39242;SDS011;29823;47.404;8.566;2023-12-20T06:01:52;18.45;;;9.57;;
39242;SDS011;29823;47.404;8.566;2023-12-20T06:04:20;18.40;;;9.02;;
39242;SDS011;29823;47.404;8.566;2023-12-20T06:06:50;15.32;;;9.50;;
39242;SDS011;29823;47.404;8.566;2023-12-20T06:09:18;18.58;;;9.63;;
39242;SDS011;29823;47.404;8.566;2023-12-20T06:11:46;18.02;;;10.15;;
39242;SDS011;29823;47.404;8.566;2023-12-20T06:14:13;17.13;;;9.25;;
39242;SDS011;29823;47.404;8.566;2023-12-20T06:16:41;15.60;;;8.68;;
39242;SDS011;29823;47.404;8.566;2023-12-20T06:19:09;16.23;;;9.57;;
39242;SDS011;29823;47.404;8.566;2023-12-20T06:21:37;18.75;;;9.32;;
39242;SDS011;29823;47.404;8.566;2023-12-20T06:24:09;15.85;;;9.55;;
39242;SDS011;29823;47.404;8.566;2023-12-20T06:26:37;15.50;;;8.50;;
39242;SDS011;29823;47.404;8.566;2023-12-20T06:29:04;14.70;;;8.45;;
39242;SDS011;29823;47.404;8.566;2023-12-20T06:31:32;17.67;;;9.65;;
39242;SDS011;29823;47.404;8.566;2023-12-20T06:34:00;17.10;;;8.90;;
39242;SDS011;29823;47.404;8.566;2023-12-20T06:36:28;19.75;;;9.68;;
39242;SDS011;29823;47.404;8.566;2023-12-20T06:38:56;16.08;;;9.02;;
39242;SDS011;29823;47.404;8.566;2023-12-20T06:41:25;18.20;;;9.60;;
39242;SDS011;29823;47.404;8.566;2023-12-20T06:43:52;16.23;;;8.98;;
39242;SDS011;29823;47.404;8.566;2023-12-20T06:46:20;15.60;;;9.00;;
39242;SDS011;29823;47.404;8.566;2023-12-20T06:48:48;17.23;;;8.93;;
39242;SDS011;29823;47.404;8.566;2023-12-20T06:51:16;15.90;;;9.48;;
39242;SDS011;29823;47.404;8.566;2023-12-20T06:53:45;16.60;;;9.48;;
39242;SDS011;29823;47.404;8.566;2023-12-20T06:56:13;15.40;;;8.60;;
39242;SDS011;29823;47.404;8.566;2023-12-20T06:58:46;17.40;;;9.25;;
39242;SDS011;29823;47.404;8.566;2023-12-20T07:01:14;15.48;;;9.07;;
39242;SDS011;29823;47.404;8.566;2023-12-20T07:03:42;16.25;;;9.10;;
39242;SDS011;29823;47.404;8.566;2023-12-20T07:06:09;19.83;;;9.70;;
39242;SDS011;29823;47.404;8.566;2023-12-20T07:08:38;17.98;;;9.05;;
39242;SDS011;29823;47.404;8.566;2023-12-20T07:11:06;19.50;;;9.73;;
39242;SDS011;29823;47.404;8.566;2023-12-20T07:13:34;15.88;;;9.90;;
39242;SDS011;29823;47.404;8.566;2023-12-20T07:16:04;18.05;;;10.25;;
39242;SDS011;29823;47.404;8.566;2023-12-20T07:18:31;21.67;;;9.70;;
39242;SDS011;29823;47.404;8.566;2023-12-20T07:21:00;16.95;;;9.52;;
39242;SDS011;29823;47.404;8.566;2023-12-20T07:23:27;16.20;;;9.18;;
39242;SDS011;29823;47.404;8.566;2023-12-20T07:25:55;16.02;;;8.70;;
39242;SDS011;29823;47.404;8.566;2023-12-20T07:28:23;17.33;;;7.95;;
39242;SDS011;29823;47.404;8.566;2023-12-20T07:30:51;23.27;;;9.60;;
39242;SDS011;29823;47.404;8.566;2023-12-20T07:33:20;15.60;;;9.18;;
39242;SDS011;29823;47.404;8.566;2023-12-20T07:35:48;14.55;;;9.00;;
39242;SDS011;29823;47.404;8.566;2023-12-20T07:38:18;16.38;;;9.60;;
39242;SDS011;29823;47.404;8.566;2023-12-20T07:40:47;16.77;;;9.52;;
39242;SDS011;29823;47.404;8.566;2023-12-20T07:43:15;16.65;;;8.68;;
39242;SDS011;29823;47.404;8.566;2023-12-20T07:45:44;15.55;;;9.40;;
39242;SDS011;29823;47.404;8.566;2023-12-20T07:48:12;16.67;;;9.32;;
39242;SDS011;29823;47.404;8.566;2023-12-20T07:50:41;13.65;;;8.63;;
39242;SDS011;29823;47.404;8.566;2023-12-20T07:53:09;18.23;;;9.98;;
39242;SDS011;29823;47.404;8.566;2023-12-20T07:55:36;18.42;;;9.88;;
39242;SDS011;29823;47.404;8.566;2023-12-20T07:58:04;17.20;;;9.73;;
39242;SDS011;29823;47.404;8.566;2023-12-20T08:00:32;14.57;;;9.00;;
39242;SDS011;29823;47.404;8.566;2023-12-20T08:03:00;19.48;;;9.90;;
39242;SDS011;29823;47.404;8.566;2023-12-20T08:05:29;16.98;;;10.45;;
39242;SDS011;29823;47.404;8.566;2023-12-20T08:07:58;17.23;;;10.13;;
39242;SDS011;29823;47.404;8.566;2023-12-20T08:10:26;17.73;;;9.98;;
39242;SDS011;29823;47.404;8.566;2023-12-20T08:12:56;16.88;;;9.60;;
39242;SDS011;29823;47.404;8.566;2023-12-20T08:15:23;15.73;;;9.93;;
39242;SDS011;29823;47.404;8.566;2023-12-20T08:17:51;18.48;;;10.35;;
39242;SDS011;29823;47.404;8.566;2023-12-20T08:20:19;18.13;;;10.43;;
39242;SDS011;29823;47.404;8.566;2023-12-20T08:22:59;18.52;;;10.20;;
39242;SDS011;29823;47.404;8.566;2023-12-20T08:25:27;18.40;;;9.55;;
39242;SDS011;29823;47.404;8.566;2023-12-20T08:27:54;15.73;;;8.80;;
39242;SDS011;29823;47.404;8.566;2023-12-20T08:30:22;18.52;;;9.77;;
39242;SDS011;29823;47.404;8.566;2023-12-20T08:32:50;17.23;;;10.00;;
39242;SDS011;29823;47.404;8.566;2023-12-20T08:35:17;16.02;;;9.07;;
39242;SDS011;29823;47.404;8.566;2023-12-20T08:37:46;16.00;;;9.43;;
39242;SDS011;29823;47.404;8.566;2023-12-20T08:40:15;14.65;;;8.52;;
39242;SDS011;29823;47.404;8.566;2023-12-20T08:42:43;16.73;;;9.02;;
39242;SDS011;29823;47.404;8.566;2023-12-20T08:45:11;13.90;;;8.15;;
39242;SDS011;29823;47.404;8.566;2023-12-20T08:47:38;12.73;;;8.48;;
39242;SDS011;29823;47.404;8.566;2023-12-20T08:50:07;13.35;;;8.02;;
39242;SDS011;29823;47.404;8.566;2023-12-20T08:52:35;14.35;;;7.95;;
39242;SDS011;29823;47.404;8.566;2023-12-20T08:55:03;11.43;;;7.55;;
39242;SDS011;29823;47.404;8.566;2023-12-20T08:57:32;13.60;;;7.85;;
39242;SDS011;29823;47.404;8.566;2023-12-20T09:00:00;12.00;;;7.30;;
39242;SDS011;29823;47.404;8.566;2023-12-20T09:02:27;12.65;;;7.10;;
39242;SDS011;29823;47.404;8.566;2023-12-20T09:04:55;14.05;;;8.10;;
39242;SDS011;29823;47.404;8.566;2023-12-20T09:07:23;14.55;;;7.80;;
39242;SDS011;29823;47.404;8.566;2023-12-20T09:09:51;14.23;;;7.97;;
39242;SDS011;29823;47.404;8.566;2023-12-20T09:12:19;10.82;;;7.07;;
39242;SDS011;29823;47.404;8.566;2023-12-20T09:14:48;12.75;;;8.13;;
39242;SDS011;29823;47.404;8.566;2023-12-20T09:17:16;16.58;;;8.30;;
39242;SDS011;29823;47.404;8.566;2023-12-20T09:19:44;17.55;;;8.30;;
39242;SDS011;29823;47.404;8.566;2023-12-20T09:22:12;17.05;;;8.23;;
39242;SDS011;29823;47.404;8.566;2023-12-20T09:24:40;16.88;;;9.20;;
39242;SDS011;29823;47.404;8.566;2023-12-20T09:27:08;12.77;;;8.27;;
39242;SDS011;29823;47.404;8.566;2023-12-20T09:29:35;13.02;;;7.93;;
39242;SDS011;29823;47.404;8.566;2023-12-20T09:32:05;15.88;;;8.25;;
39242;SDS011;29823;47.404;8.566;2023-12-20T09:34:33;14.07;;;8.38;;
39242;SDS011;29823;47.404;8.566;2023-12-20T09:37:01;15.10;;;8.00;;
39242;SDS011;29823;47.404;8.566;2023-12-20T09:39:29;14.02;;;8.40;;
39242;SDS011;29823;47.404;8.566;2023-12-20T09:42:00;14.13;;;8.48;;
39242;SDS011;29823;47.404;8.566;2023-12-20T09:44:28;13.52;;;8.32;;
39242;SDS011;29823;47.404;8.566;2023-12-20T09:46:56;18.30;;;9.07;;
39242;SDS011;29823;47.404;8.566;2023-12-20T09:49:25;16.17;;;9.00;;
39242;SDS011;29823;47.404;8.566;2023-12-20T09:51:55;12.30;;;7.95;;
39242;SDS011;29823;47.404;8.566;2023-12-20T09:54:23;13.40;;;8.00;;
39242;SDS011;29823;47.404;8.566;2023-12-20T09:56:50;13.77;;;8.20;;
39242;SDS011;29823;47.404;8.566;2023-12-20T09:59:18;15.23;;;8.13;;
39242;SDS011;29823;47.404;8.566;2023-12-20T10:01:46;14.35;;;8.00;;
39242;SDS011;29823;47.404;8.566;2023-12-20T10:04:14;13.07;;;8.20;;
39242;SDS011;29823;47.404;8.566;2023-12-20T10:06:56;16.63;;;8.52;;
39242;SDS011;29823;47.404;8.566;2023-12-20T10:09:25;13.90;;;7.78;;
39242;SDS011;29823;47.404;8.566;2023-12-20T10:11:54;14.85;;;8.32;;
39242;SDS011;29823;47.404;8.566;2023-12-20T10:14:23;12.23;;;7.88;;
39242;SDS011;29823;47.404;8.566;2023-12-20T10:16:51;14.65;;;8.15;;
39242;SDS011;29823;47.404;8.566;2023-12-20T10:19:19;14.18;;;8.15;;
39242;SDS011;29823;47.404;8.566;2023-12-20T10:21:47;17.45;;;8.45;;
39242;SDS011;29823;47.404;8.566;2023-12-20T10:24:17;13.32;;;7.32;;
39242;SDS011;29823;47.404;8.566;2023-12-20T10:26:45;13.95;;;7.88;;
39242;SDS011;29823;47.404;8.566;2023-12-20T10:29:13;11.73;;;6.97;;
39242;SDS011;29823;47.404;8.566;2023-12-20T10:31:40;12.63;;;7.28;;
39242;SDS011;29823;47.404;8.566;2023-12-20T10:34:09;11.70;;;7.25;;
39242;SDS011;29823;47.404;8.566;2023-12-20T10:36:37;17.15;;;8.07;;
39242;SDS011;29823;47.404;8.566;2023-12-20T10:39:04;12.98;;;7.40;;
39242;SDS011;29823;47.404;8.566;2023-12-20T10:41:36;13.07;;;7.95;;
39242;SDS011;29823;47.404;8.566;2023-12-20T10:44:07;15.13;;;8.77;;
39242;SDS011;29823;47.404;8.566;2023-12-20T10:46:36;13.15;;;8.32;;
39242;SDS011;29823;47.404;8.566;2023-12-20T10:49:04;13.77;;;8.10;;
39242;SDS011;29823;47.404;8.566;2023-12-20T10:51:32;13.25;;;7.72;;
39242;SDS011;29823;47.404;8.566;2023-12-20T10:54:01;15.13;;;7.70;;
39242;SDS011;29823;47.404;8.566;2023-12-20T10:56:31;12.88;;;7.57;;
39242;SDS011;29823;47.404;8.566;2023-12-20T10:59:01;15.55;;;7.70;;
39242;SDS011;29823;47.404;8.566;2023-12-20T11:01:30;15.00;;;7.53;;
39242;SDS011;29823;47.404;8.566;2023-12-20T11:03:59;14.10;;;7.82;;
39242;SDS011;29823;47.404;8.566;2023-12-20T11:06:29;11.48;;;6.43;;
39242;SDS011;29823;47.404;8.566;2023-12-20T11:09:06;11.52;;;6.60;;
39242;SDS011;29823;47.404;8.566;2023-12-20T11:11:38;10.38;;;6.30;;
39242;SDS011;29823;47.404;8.566;2023-12-20T11:14:12;11.68;;;6.60;;
39242;SDS011;29823;47.404;8.566;2023-12-20T11:16:43;9.93;;;5.75;;
39242;SDS011;29823;47.404;8.566;2023-12-20T11:19:20;10.25;;;6.35;;
39242;SDS011;29823;47.404;8.566;2023-12-20T11:21:48;9.25;;;6.63;;
39242;SDS011;29823;47.404;8.566;2023-12-20T11:24:16;10.15;;;5.47;;
39242;SDS011;29823;47.404;8.566;2023-12-20T11:26:46;8.93;;;5.50;;
39242;SDS011;29823;47.404;8.566;2023-12-20T11:32:02;6.93;;;5.00;;
39242;SDS011;29823;47.404;8.566;2023-12-20T11:34:31;7.78;;;5.15;;
39242;SDS011;29823;47.404;8.566;2023-12-20T11:36:59;7.00;;;4.70;;
39242;SDS011;29823;47.404;8.566;2023-12-20T11:39:27;7.45;;;4.65;;
39242;SDS011;29823;47.404;8.566;2023-12-20T11:41:56;7.28;;;4.57;;
39242;SDS011;29823;47.404;8.566;2023-12-20T11:44:25;9.00;;;4.55;;
39242;SDS011;29823;47.404;8.566;2023-12-20T11:46:52;9.27;;;4.70;;
39242;SDS011;29823;47.404;8.566;2023-12-20T11:49:24;6.00;;;4.07;;
39242;SDS011;29823;47.404;8.566;2023-12-20T11:51:52;6.63;;;3.67;;
39242;SDS011;29823;47.404;8.566;2023-12-20T11:54:20;5.78;;;4.00;;
39242;SDS011;29823;47.404;8.566;2023-12-20T11:56:47;4.72;;;3.60;;
39242;SDS011;29823;47.404;8.566;2023-12-20T11:59:15;5.10;;;3.63;;
39242;SDS011;29823;47.404;8.566;2023-12-20T12:01:49;4.60;;;2.75;;
39242;SDS011;29823;47.404;8.566;2023-12-20T12:04:18;2.55;;;2.03;;
39242;SDS011;29823;47.404;8.566;2023-12-20T12:06:47;2.72;;;1.85;;
39242;SDS011;29823;47.404;8.566;2023-12-20T12:09:15;2.60;;;1.90;;
39242;SDS011;29823;47.404;8.566;2023-12-20T12:11:43;3.33;;;1.70;;
39242;SDS011;29823;47.404;8.566;2023-12-20T12:14:10;2.80;;;2.05;;
39242;SDS011;29823;47.404;8.566;2023-12-20T12:16:38;4.95;;;1.90;;
39242;SDS011;29823;47.404;8.566;2023-12-20T12:19:06;2.55;;;1.60;;
39242;SDS011;29823;47.404;8.566;2023-12-20T12:21:34;2.65;;;1.80;;
39242;SDS011;29823;47.404;8.566;2023-12-20T12:24:09;2.95;;;1.65;;
39242;SDS011;29823;47.404;8.566;2023-12-20T12:26:37;3.95;;;1.95;;
39242;SDS011;29823;47.404;8.566;2023-12-20T12:29:06;4.53;;;2.00;;
39242;SDS011;29823;47.404;8.566;2023-12-20T12:31:34;3.83;;;2.10;;
39242;SDS011;29823;47.404;8.566;2023-12-20T12:34:02;2.50;;;1.80;;
39242;SDS011;29823;47.404;8.566;2023-12-20T12:36:30;3.95;;;1.75;;
39242;SDS011;29823;47.404;8.566;2023-12-20T12:38:58;2.95;;;1.80;;
39242;SDS011;29823;47.404;8.566;2023-12-20T12:41:27;6.55;;;1.83;;
39242;SDS011;29823;47.404;8.566;2023-12-20T12:43:56;3.67;;;1.60;;
39242;SDS011;29823;47.404;8.566;2023-12-20T12:46:30;3.08;;;1.25;;
39242;SDS011;29823;47.404;8.566;2023-12-20T12:48:59;1.60;;;1.20;;
39242;SDS011;29823;47.404;8.566;2023-12-20T12:51:27;1.42;;;1.30;;
39242;SDS011;29823;47.404;8.566;2023-12-20T12:53:54;1.65;;;1.23;;
39242;SDS011;29823;47.404;8.566;2023-12-20T12:56:22;1.50;;;1.00;;
39242;SDS011;29823;47.404;8.566;2023-12-20T12:58:51;2.08;;;1.40;;
39242;SDS011;29823;47.404;8.566;2023-12-20T13:01:19;2.30;;;1.38;;
39242;SDS011;29823;47.404;8.566;2023-12-20T13:03:47;1.98;;;1.23;;
39242;SDS011;29823;47.404;8.566;2023-12-20T13:06:15;5.38;;;1.50;;
39242;SDS011;29823;47.404;8.566;2023-12-20T13:08:42;2.38;;;1.42;;
39242;SDS011;29823;47.404;8.566;2023-12-20T13:11:10;2.97;;;1.10;;
39242;SDS011;29823;47.404;8.566;2023-12-20T13:13:38;2.05;;;1.15;;
39242;SDS011;29823;47.404;8.566;2023-12-20T13:16:07;3.97;;;1.00;;
39242;SDS011;29823;47.404;8.566;2023-12-20T13:18:35;5.38;;;1.33;;
39242;SDS011;29823;47.404;8.566;2023-12-20T13:21:04;2.55;;;0.90;;
39242;SDS011;29823;47.404;8.566;2023-12-20T13:23:31;1.98;;;1.10;;
39242;SDS011;29823;47.404;8.566;2023-12-20T13:26:01;3.30;;;1.17;;
39242;SDS011;29823;47.404;8.566;2023-12-20T13:28:29;6.18;;;1.38;;
39242;SDS011;29823;47.404;8.566;2023-12-20T13:30:57;3.78;;;1.33;;
39242;SDS011;29823;47.404;8.566;2023-12-20T13:33:26;3.47;;;1.33;;
39242;SDS011;29823;47.404;8.566;2023-12-20T13:35:54;1.83;;;1.13;;
39242;SDS011;29823;47.404;8.566;2023-12-20T13:38:22;1.55;;;0.95;;
39242;SDS011;29823;47.404;8.566;2023-12-20T13:40:50;2.72;;;1.50;;
39242;SDS011;29823;47.404;8.566;2023-12-20T13:43:17;3.88;;;1.50;;
39242;SDS011;29823;47.404;8.566;2023-12-20T13:45:47;6.45;;;1.70;;
39242;SDS011;29823;47.404;8.566;2023-12-20T13:48:15;2.42;;;1.40;;
39242;SDS011;29823;47.404;8.566;2023-12-20T13:50:44;5.03;;;1.60;;
39242;SDS011;29823;47.404;8.566;2023-12-20T13:53:12;7.03;;;1.60;;
39242;SDS011;29823;47.404;8.566;2023-12-20T13:55:40;3.03;;;1.63;;
39242;SDS011;29823;47.404;8.566;2023-12-20T13:58:08;5.75;;;1.70;;
39242;SDS011;29823;47.404;8.566;2023-12-20T14:00:36;3.80;;;1.70;;
39242;SDS011;29823;47.404;8.566;2023-12-20T14:03:04;5.43;;;1.83;;
39242;SDS011;29823;47.404;8.566;2023-12-20T14:05:32;2.58;;;1.35;;
39242;SDS011;29823;47.404;8.566;2023-12-20T14:08:01;3.33;;;1.40;;
39242;SDS011;29823;47.404;8.566;2023-12-20T14:10:29;4.63;;;2.05;;
39242;SDS011;29823;47.404;8.566;2023-12-20T14:12:57;3.30;;;1.60;;
39242;SDS011;29823;47.404;8.566;2023-12-20T14:15:25;5.13;;;1.40;;
39242;SDS011;29823;47.404;8.566;2023-12-20T14:17:53;2.88;;;1.30;;
39242;SDS011;29823;47.404;8.566;2023-12-20T14:20:21;7.18;;;1.60;;
39242;SDS011;29823;47.404;8.566;2023-12-20T14:22:48;7.10;;;1.52;;
39242;SDS011;29823;47.404;8.566;2023-12-20T14:25:18;3.97;;;1.50;;
39242;SDS011;29823;47.404;8.566;2023-12-20T14:27:46;5.28;;;1.63;;
39242;SDS011;29823;47.404;8.566;2023-12-20T14:30:14;3.80;;;1.33;;
39242;SDS011;29823;47.404;8.566;2023-12-20T14:32:43;4.38;;;1.30;;
39242;SDS011;29823;47.404;8.566;2023-12-20T14:35:11;2.03;;;1.23;;
39242;SDS011;29823;47.404;8.566;2023-12-20T14:37:39;5.80;;;1.58;;
39242;SDS011;29823;47.404;8.566;2023-12-20T14:40:07;3.97;;;1.27;;
39242;SDS011;29823;47.404;8.566;2023-12-20T14:42:42;3.38;;;1.30;;
39242;SDS011;29823;47.404;8.566;2023-12-20T14:45:10;6.07;;;1.30;;
39242;SDS011;29823;47.404;8.566;2023-12-20T14:47:39;8.88;;;1.20;;